createdAt,value
2023-01-02T00:01:04.431Z,100.00
2023-01-02T00:03:31.640Z,100.00
2023-01-02T00:05:58.617Z,100.00
2023-01-02T00:08:25.611Z,100.00
2023-01-02T00:10:53.174Z,100.00
2023-01-02T00:13:20.510Z,100.00
2023-01-02T00:15:47.670Z,100.00
2023-01-02T00:18:14.769Z,100.00
2023-01-02T00:20:41.699Z,100.00
2023-01-02T00:23:08.977Z,100.00
2023-01-02T00:25:35.974Z,100.00
2023-01-02T00:28:03.341Z,100.00
2023-01-02T00:30:37.560Z,100.00
2023-01-02T00:33:06.861Z,100.00
2023-01-02T00:35:34.254Z,100.00
2023-01-02T00:38:01.195Z,100.00
2023-01-02T00:40:28.203Z,100.00
2023-01-02T00:42:55.155Z,100.00
2023-01-02T00:45:22.142Z,100.00
2023-01-02T00:47:49.132Z,100.00
2023-01-02T00:50:16.305Z,100.00
2023-01-02T00:52:43.382Z,100.00
2023-01-02T00:55:10.492Z,100.00
2023-01-02T00:57:39.923Z,100.00
2023-01-02T01:00:07.901Z,100.00
2023-01-02T01:02:34.875Z,100.00
2023-01-02T01:05:02.660Z,100.00
2023-01-02T01:07:29.785Z,100.00
2023-01-02T01:09:56.780Z,100.00
2023-01-02T01:12:23.807Z,100.00
2023-01-02T01:14:50.785Z,100.00
2023-01-02T01:17:17.820Z,100.00
2023-01-02T01:19:44.788Z,100.00
2023-01-02T01:22:12.143Z,100.00
2023-01-02T01:24:39.048Z,100.00
2023-01-02T01:27:06.017Z,100.00
2023-01-02T01:29:32.917Z,100.00
2023-01-02T01:31:59.868Z,100.00
2023-01-02T01:34:26.843Z,100.00
2023-01-02T01:36:53.778Z,100.00
2023-01-02T01:39:20.754Z,100.00
2023-01-02T01:41:47.693Z,100.00
2023-01-02T01:44:48.695Z,100.00
2023-01-02T01:47:41.075Z,100.00
2023-01-02T01:50:10.930Z,100.00
2023-01-02T01:52:57.049Z,100.00
2023-01-02T01:55:32.099Z,100.00
2023-01-02T01:58:06.385Z,100.00
2023-01-02T02:00:34.301Z,100.00
2023-01-02T02:03:09.434Z,100.00
2023-01-02T02:05:37.838Z,100.00
2023-01-02T02:08:08.535Z,100.00
2023-01-02T02:10:38.063Z,100.00
2023-01-02T02:13:06.162Z,100.00
2023-01-02T02:16:01.688Z,100.00
2023-01-02T02:18:34.467Z,100.00
2023-01-02T02:21:28.701Z,100.00
2023-01-02T02:24:39.801Z,100.00
2023-01-02T02:27:12.509Z,100.00
2023-01-02T02:29:42.245Z,100.00
2023-01-02T02:32:26.386Z,100.00
2023-01-02T02:35:21.245Z,100.00
2023-01-02T02:38:13.326Z,100.00
2023-01-02T02:41:37.123Z,100.00
2023-01-02T02:44:22.783Z,100.00
2023-01-02T02:47:29.969Z,100.00
2023-01-02T02:50:41.407Z,100.00
2023-01-02T02:53:42.285Z,100.00
2023-01-02T02:56:11.957Z,100.00
2023-01-02T02:58:41.671Z,100.00
2023-01-02T03:01:16.173Z,100.00
2023-01-02T03:03:44.090Z,100.00
2023-01-02T03:06:17.075Z,100.00
2023-01-02T03:09:13.847Z,100.00
2023-01-02T03:12:05.360Z,100.00
2023-01-02T03:14:53.751Z,100.00
2023-01-02T03:17:34.221Z,100.00
2023-01-02T03:20:11.850Z,100.00
2023-01-02T03:22:46.042Z,100.00
2023-01-02T03:25:15.901Z,100.00
2023-01-02T03:27:45.958Z,100.00
2023-01-02T03:30:18.769Z,100.00
2023-01-02T03:32:55.758Z,100.00
2023-01-02T03:35:29.378Z,100.00
2023-01-02T03:37:58.649Z,100.00
2023-01-02T03:40:32.999Z,100.00
2023-01-02T03:43:24.008Z,100.00
2023-01-02T03:46:17.369Z,100.00
2023-01-02T03:48:52.128Z,100.00
2023-01-02T03:51:19.574Z,100.00
2023-01-02T03:53:49.585Z,100.00
2023-01-02T03:56:50.570Z,100.00
2023-01-02T03:59:58.986Z,100.00
2023-01-02T04:03:02.607Z,100.00
2023-01-02T04:05:59.654Z,100.00
2023-01-02T04:08:34.538Z,100.00
2023-01-02T04:11:04.407Z,100.00
2023-01-02T04:13:43.328Z,100.00
2023-01-02T04:16:17.297Z,100.00
2023-01-02T04:18:52.014Z,100.00
2023-01-02T04:21:25.995Z,100.00
2023-01-02T04:24:21.139Z,100.00
2023-01-02T04:27:24.750Z,100.00
2023-01-02T04:29:51.939Z,100.00
2023-01-02T04:32:45.011Z,100.00
2023-01-02T04:35:17.160Z,100.00
2023-01-02T04:37:45.413Z,100.00
2023-01-02T04:40:25.870Z,100.00
2023-01-02T04:42:53.475Z,100.00
2023-01-02T04:45:20.760Z,100.00
2023-01-02T04:47:49.294Z,100.00
2023-01-02T04:50:17.057Z,100.00
2023-01-02T04:52:44.095Z,100.00
2023-01-02T04:55:11.429Z,100.00
2023-01-02T04:57:38.428Z,100.00
2023-01-02T05:00:08.628Z,100.00
2023-01-02T05:02:40.452Z,100.00
2023-01-02T05:05:08.912Z,100.00
2023-01-02T05:07:37.414Z,100.00
2023-01-02T05:10:06.119Z,100.00
2023-01-02T05:12:37.151Z,100.00
2023-01-02T05:15:06.549Z,100.00
2023-01-02T05:17:38.447Z,100.00
2023-01-02T05:20:09.073Z,100.00
2023-01-02T05:23:01.019Z,100.00
2023-01-02T05:25:32.499Z,100.00
2023-01-02T05:27:59.485Z,100.00
2023-01-02T05:30:26.595Z,100.00
2023-01-02T05:32:53.759Z,100.00
2023-01-02T05:35:21.116Z,100.00
2023-01-02T05:37:48.056Z,100.00
2023-01-02T05:40:15.203Z,100.00
2023-01-02T05:42:42.103Z,100.00
2023-01-02T05:45:09.548Z,100.00
2023-01-02T05:47:38.293Z,100.00
2023-01-02T05:50:06.075Z,100.00
2023-01-02T05:52:33.018Z,100.00
2023-01-02T05:55:01.215Z,100.00
2023-01-02T05:57:28.159Z,100.00
2023-01-02T05:59:55.100Z,100.00
2023-01-02T06:02:22.167Z,100.00
2023-01-02T06:04:49.236Z,100.00
2023-01-02T06:07:16.204Z,100.00
2023-01-02T06:09:43.151Z,100.00
2023-01-02T06:12:10.119Z,100.00
2023-01-02T06:14:37.081Z,100.00
2023-01-02T06:17:04.070Z,100.00
2023-01-02T06:19:31.036Z,100.00
2023-01-02T06:21:57.954Z,100.00
2023-01-02T06:24:24.947Z,100.00
2023-01-02T06:26:51.893Z,100.00
2023-01-02T06:29:18.955Z,100.00
2023-01-02T06:31:51.067Z,100.00
2023-01-02T06:34:18.656Z,100.00
2023-01-02T06:36:45.593Z,100.00
2023-01-02T06:39:12.545Z,100.00
2023-01-02T06:41:39.478Z,100.00
2023-01-02T06:44:06.465Z,100.00
2023-01-02T06:46:33.492Z,100.00
2023-01-02T06:49:00.475Z,100.00
2023-01-02T06:51:27.412Z,100.00
2023-01-02T06:53:55.485Z,100.00
2023-01-02T06:56:22.533Z,100.00
2023-01-02T06:58:50.158Z,100.00
2023-01-02T07:01:22.846Z,100.00
2023-01-02T07:03:50.403Z,100.00
2023-01-02T07:06:20.454Z,100.00
2023-01-02T07:08:47.983Z,100.00
2023-01-02T07:11:23.118Z,100.00
2023-01-02T07:13:53.125Z,100.00
2023-01-02T07:16:23.168Z,100.00
2023-01-02T07:18:53.252Z,100.00
2023-01-02T07:21:20.981Z,100.00
2023-01-02T07:23:47.923Z,100.00
2023-01-02T07:26:15.209Z,100.00
2023-01-02T07:28:42.374Z,100.00
2023-01-02T07:31:14.453Z,100.00
2023-01-02T07:33:42.153Z,100.00
2023-01-02T07:36:13.686Z,100.00
2023-01-02T07:38:40.617Z,100.00
2023-01-02T07:41:20.571Z,100.00
2023-01-02T07:43:48.374Z,100.00
2023-01-02T07:46:19.102Z,100.00
2023-01-02T07:48:46.773Z,100.00
2023-01-02T07:51:16.407Z,100.00
2023-01-02T07:53:45.473Z,100.00
2023-01-02T07:56:12.488Z,100.00
2023-01-02T07:58:39.498Z,100.00
2023-01-02T08:01:10.514Z,100.00
2023-01-02T08:03:38.072Z,100.00
2023-01-02T08:06:16.667Z,100.00
2023-01-02T08:08:44.145Z,100.00
2023-01-02T08:11:17.167Z,100.00
2023-01-02T08:13:44.652Z,100.00
2023-01-02T08:16:15.777Z,100.00
2023-01-02T08:18:43.540Z,100.00
2023-01-02T08:21:11.281Z,100.00
2023-01-02T08:23:38.398Z,100.00
2023-01-02T08:26:09.149Z,100.00
2023-01-02T08:28:37.714Z,100.00
2023-01-02T08:31:17.469Z,100.00
2023-01-02T08:33:45.199Z,100.00
2023-01-02T08:36:14.498Z,100.00
2023-01-02T08:38:42.024Z,100.00
2023-01-02T08:41:09.191Z,100.00
2023-01-02T08:43:37.207Z,100.00
2023-01-02T08:46:09.934Z,100.00
2023-01-02T08:48:37.156Z,100.00
2023-01-02T08:51:05.134Z,100.00
2023-01-02T08:53:32.287Z,100.00
2023-01-02T08:56:25.178Z,100.00
2023-01-02T08:59:05.178Z,100.00
2023-01-02T09:01:33.521Z,100.00
2023-01-02T09:04:06.249Z,100.00
2023-01-02T09:06:38.855Z,100.00
2023-01-02T09:09:11.514Z,100.00
2023-01-02T09:11:44.180Z,100.00
2023-01-02T09:14:11.563Z,100.00
2023-01-02T09:16:38.899Z,100.00
2023-01-02T09:19:06.486Z,100.00
2023-01-02T09:21:33.879Z,100.00
2023-01-02T09:24:01.574Z,100.00
2023-01-02T09:26:28.963Z,100.00
2023-01-02T09:28:56.285Z,100.00
2023-01-02T09:31:23.919Z,100.00
2023-01-02T09:33:53.979Z,100.00
2023-01-02T09:36:22.072Z,100.00
2023-01-02T09:38:54.045Z,100.00
2023-01-02T09:41:42.738Z,100.00
2023-01-02T09:44:25.019Z,100.00
2023-01-02T09:47:02.324Z,100.00
2023-01-02T09:49:54.913Z,100.00
2023-01-02T09:52:42.124Z,100.00
2023-01-02T09:55:24.326Z,100.00
2023-01-02T09:57:51.624Z,100.00
2023-01-02T10:00:20.503Z,100.00
2023-01-02T10:03:30.992Z,100.00
2023-01-02T10:06:21.678Z,100.00
2023-01-02T10:09:00.917Z,100.00
2023-01-02T10:11:56.214Z,100.00
2023-01-02T10:14:53.802Z,100.00
2023-01-02T10:17:21.421Z,100.00
2023-01-02T10:20:23.845Z,100.00
2023-01-02T10:22:57.668Z,100.00
2023-01-02T10:25:33.000Z,100.00
2023-01-02T10:28:30.549Z,100.00
2023-01-02T10:31:21.083Z,100.00
2023-01-02T10:33:52.999Z,100.00
2023-01-02T10:36:28.658Z,100.00
2023-01-02T10:39:04.392Z,100.00
2023-01-02T10:41:32.531Z,100.00
2023-01-02T10:44:05.934Z,100.00
2023-01-02T10:46:35.933Z,100.00
2023-01-02T10:49:08.480Z,100.00
2023-01-02T10:51:38.452Z,100.00
2023-01-02T10:54:09.819Z,100.00
2023-01-02T10:56:38.892Z,100.00
2023-01-02T10:59:20.949Z,96.56
2023-01-02T11:01:57.325Z,94.48
2023-01-02T11:04:26.998Z,94.87
2023-01-02T11:06:59.983Z,96.36
2023-01-02T11:09:32.250Z,91.25
2023-01-02T11:12:09.946Z,90.20
2023-01-02T11:14:37.875Z,89.91
2023-01-02T11:17:06.435Z,91.88
2023-01-02T11:19:44.285Z,82.22
2023-01-02T11:22:13.914Z,81.83
2023-01-02T11:25:00.721Z,75.04
2023-01-02T11:27:32.164Z,75.78
2023-01-02T11:30:00.559Z,71.64
2023-01-02T11:32:40.622Z,67.92
2023-01-02T11:35:29.734Z,65.44
2023-01-02T11:37:57.104Z,62.85
2023-01-02T11:40:30.412Z,63.33
2023-01-02T11:43:26.106Z,60.71
2023-01-02T11:45:53.996Z,53.78
2023-01-02T11:48:23.138Z,54.68
2023-01-02T11:50:51.247Z,59.95
2023-01-02T11:53:22.172Z,56.06
2023-01-02T11:56:10.689Z,59.69
2023-01-02T11:58:48.246Z,61.05
2023-01-02T12:01:40.446Z,58.35
2023-01-02T12:04:07.972Z,60.10
2023-01-02T12:06:46.695Z,64.36
2023-01-02T12:09:25.943Z,66.08
2023-01-02T12:12:13.825Z,67.03
2023-01-02T12:14:59.665Z,66.33
2023-01-02T12:17:51.666Z,64.71
2023-01-02T12:20:28.238Z,63.57
2023-01-02T12:23:17.024Z,64.97
2023-01-02T12:26:02.003Z,68.27
2023-01-02T12:28:48.256Z,71.92
2023-01-02T12:31:15.612Z,73.84
2023-01-02T12:33:49.467Z,74.14
2023-01-02T12:36:34.291Z,73.22
2023-01-02T12:39:35.680Z,74.74
2023-01-02T12:42:21.911Z,70.17
2023-01-02T12:44:55.739Z,71.08
2023-01-02T12:47:25.873Z,73.19
2023-01-02T12:50:11.285Z,78.30
2023-01-02T12:52:38.640Z,81.48
2023-01-02T12:55:21.146Z,83.39
2023-01-02T12:57:48.432Z,82.79
2023-01-02T13:00:41.143Z,81.73
2023-01-02T13:03:41.164Z,82.56
2023-01-02T13:06:48.528Z,79.92
2023-01-02T13:09:39.087Z,78.26
2023-01-02T13:12:15.441Z,76.05
2023-01-02T13:14:54.404Z,77.26
2023-01-02T13:17:34.365Z,76.47
2023-01-02T13:20:19.936Z,75.66
2023-01-02T13:23:08.319Z,75.47
2023-01-02T13:25:39.719Z,75.88
2023-01-02T13:28:12.894Z,78.33
2023-01-02T13:31:00.954Z,78.53
2023-01-02T13:33:47.918Z,76.46
2023-01-02T13:36:28.431Z,76.25
2023-01-02T13:38:59.150Z,74.64
2023-01-02T13:41:28.472Z,70.98
2023-01-02T13:44:01.248Z,73.53
2023-01-02T13:47:02.702Z,72.39
2023-01-02T13:49:24.301Z,69.76
2023-01-02T13:51:59.867Z,70.76
2023-01-02T13:54:36.161Z,70.42
2023-01-02T13:57:25.173Z,73.14
2023-01-02T14:00:24.696Z,70.23
2023-01-02T14:03:20.054Z,72.82
2023-01-02T14:06:17.987Z,76.98
2023-01-02T14:09:03.835Z,78.59
2023-01-02T14:11:55.792Z,80.35
2023-01-02T14:14:34.697Z,83.39
2023-01-02T14:17:23.905Z,83.48
2023-01-02T14:20:19.000Z,86.33
2023-01-02T14:23:06.788Z,86.79
2023-01-02T14:25:34.701Z,85.50
2023-01-02T14:28:05.215Z,86.66
2023-01-02T14:30:40.571Z,84.25
2023-01-02T14:33:10.358Z,84.41
2023-01-02T14:35:49.174Z,86.21
2023-01-02T14:38:23.125Z,87.77
2023-01-02T14:40:51.107Z,91.62
2023-01-02T14:43:33.999Z,92.91
2023-01-02T14:46:04.121Z,93.62
2023-01-02T14:48:49.657Z,94.28
2023-01-02T14:51:23.126Z,93.16
2023-01-02T14:54:07.063Z,92.50
2023-01-02T14:56:37.807Z,95.33
2023-01-02T14:59:07.442Z,95.23
2023-01-02T15:01:42.123Z,95.73
2023-01-02T15:04:25.058Z,96.58
2023-01-02T15:07:06.091Z,97.39
2023-01-02T15:09:45.186Z,99.99
2023-01-02T15:12:52.002Z,100.00
2023-01-02T15:15:29.411Z,100.00
2023-01-02T15:18:02.722Z,100.00
2023-01-02T15:20:31.036Z,100.00
2023-01-02T15:22:59.295Z,100.00
2023-01-02T15:25:40.211Z,100.00
2023-01-02T15:28:22.203Z,100.00
2023-01-02T15:30:59.614Z,100.00
2023-01-02T15:33:31.475Z,100.00
2023-01-02T15:36:03.064Z,100.00
2023-01-02T15:38:30.495Z,100.00
2023-01-02T15:40:58.437Z,100.00
2023-01-02T15:43:47.324Z,100.00
2023-01-02T15:46:16.018Z,100.00
2023-01-02T15:48:44.518Z,100.00
2023-01-02T15:51:17.592Z,100.00
2023-01-02T15:53:45.462Z,100.00
2023-01-02T15:56:14.328Z,100.00
2023-01-02T15:58:49.702Z,100.00
2023-01-02T16:01:21.672Z,100.00
2023-01-02T16:04:05.396Z,100.00
2023-01-02T16:06:40.664Z,100.00
2023-01-02T16:09:17.616Z,100.00
2023-01-02T16:11:48.220Z,100.00
2023-01-02T16:14:20.681Z,97.94
2023-01-02T16:17:15.604Z,97.38
2023-01-02T16:20:01.514Z,97.94
2023-01-02T16:22:42.861Z,97.95
2023-01-02T16:25:17.685Z,99.43
2023-01-02T16:28:05.009Z,99.76
2023-01-02T16:31:14.562Z,98.55
2023-01-02T16:33:42.611Z,99.71
2023-01-02T16:36:16.040Z,100.00
2023-01-02T16:38:54.935Z,100.00
2023-01-02T16:41:37.464Z,100.00
2023-01-02T16:44:12.408Z,100.00
2023-01-02T16:46:41.336Z,100.00
2023-01-02T16:49:12.939Z,100.00
2023-01-02T16:51:42.830Z,100.00
2023-01-02T16:54:14.073Z,100.00
2023-01-02T16:56:41.425Z,100.00
2023-01-02T16:59:08.774Z,100.00
2023-01-02T17:01:36.223Z,100.00
2023-01-02T17:04:03.771Z,100.00
2023-01-02T17:06:31.676Z,100.00
2023-01-02T17:08:59.069Z,100.00
2023-01-02T17:11:26.531Z,100.00
2023-01-02T17:13:55.036Z,100.00
2023-01-02T17:16:22.553Z,100.00
2023-01-02T17:18:50.005Z,100.00
2023-01-02T17:21:17.312Z,100.00
2023-01-02T17:23:44.711Z,100.00
2023-01-02T17:26:12.045Z,100.00
2023-01-02T17:28:39.377Z,100.00
2023-01-02T17:31:06.893Z,100.00
2023-01-02T17:33:34.217Z,100.00
2023-01-02T17:36:01.565Z,100.00
2023-01-02T17:38:28.886Z,100.00
2023-01-02T17:40:59.479Z,100.00
2023-01-02T17:43:26.874Z,100.00
2023-01-02T17:45:54.429Z,100.00
2023-01-02T17:48:24.720Z,100.00
2023-01-02T17:50:53.218Z,100.00
2023-01-02T17:53:20.520Z,100.00
2023-01-02T17:55:52.495Z,100.00
2023-01-02T17:58:39.851Z,100.00
2023-01-02T18:01:07.236Z,100.00
2023-01-02T18:03:34.603Z,100.00
2023-01-02T18:06:05.954Z,100.00
2023-01-02T18:08:34.052Z,100.00
2023-01-02T18:11:04.208Z,100.00
2023-01-02T18:13:39.909Z,100.00
2023-01-02T18:16:26.768Z,100.00
2023-01-02T18:18:54.202Z,100.00
2023-01-02T18:21:30.038Z,100.00
2023-01-02T18:23:59.424Z,100.00
2023-01-02T18:26:27.230Z,100.00
2023-01-02T18:29:02.992Z,100.00
2023-01-02T18:31:40.101Z,100.00
2023-01-02T18:34:30.078Z,100.00
2023-01-02T18:37:02.130Z,100.00
2023-01-02T18:39:42.364Z,100.00
2023-01-02T18:42:13.872Z,100.00
2023-01-02T18:44:42.483Z,100.00
2023-01-02T18:47:24.915Z,100.00
2023-01-02T18:49:53.427Z,100.00
2023-01-02T18:52:27.914Z,100.00
2023-01-02T18:55:13.662Z,100.00
2023-01-02T18:58:08.066Z,100.00
2023-01-02T19:00:36.089Z,100.00
2023-01-02T19:03:29.728Z,100.00
2023-01-02T19:06:00.842Z,100.00
2023-01-02T19:08:37.438Z,100.00
2023-01-02T19:11:38.728Z,100.00
2023-01-02T19:14:18.115Z,100.00
2023-01-02T19:16:45.566Z,100.00
2023-01-02T19:19:16.119Z,100.00
2023-01-02T19:21:43.770Z,100.00
2023-01-02T19:24:24.972Z,100.00
2023-01-02T19:26:58.275Z,100.00
2023-01-02T19:29:30.970Z,100.00
2023-01-02T19:32:23.663Z,100.00
2023-01-02T19:34:52.581Z,100.00
2023-01-02T19:37:35.875Z,100.00
2023-01-02T19:40:08.204Z,100.00
2023-01-02T19:42:38.978Z,100.00
2023-01-02T19:45:08.743Z,100.00
2023-01-02T19:47:37.815Z,100.00
2023-01-02T19:50:08.509Z,100.00
2023-01-02T19:52:35.866Z,100.00
2023-01-02T19:55:05.534Z,100.00
2023-01-02T19:57:33.521Z,100.00
2023-01-02T20:00:03.606Z,100.00
2023-01-02T20:02:39.508Z,100.00
2023-01-02T20:05:07.318Z,100.00
2023-01-02T20:07:34.695Z,100.00
2023-01-02T20:10:02.062Z,100.00
2023-01-02T20:12:40.118Z,100.00
2023-01-02T20:15:09.267Z,100.00
2023-01-02T20:17:37.739Z,100.00
2023-01-02T20:20:06.906Z,100.00
2023-01-02T20:22:34.583Z,100.00
2023-01-02T20:25:02.095Z,100.00
2023-01-02T20:27:29.477Z,100.00
2023-01-02T20:29:56.965Z,100.00
2023-01-02T20:32:24.763Z,100.00
2023-01-02T20:34:52.305Z,100.00
2023-01-02T20:37:22.782Z,100.00
2023-01-02T20:39:51.406Z,100.00
2023-01-02T20:42:19.679Z,100.00
2023-01-02T20:44:47.443Z,100.00
2023-01-02T20:47:15.134Z,100.00
2023-01-02T20:49:42.605Z,100.00
2023-01-02T20:52:10.225Z,100.00
2023-01-02T20:54:37.825Z,100.00
2023-01-02T20:57:05.205Z,100.00
2023-01-02T20:59:32.701Z,100.00
2023-01-02T21:02:00.246Z,100.00
2023-01-02T21:04:32.512Z,100.00
2023-01-02T21:07:04.376Z,100.00
2023-01-02T21:09:31.863Z,100.00
2023-01-02T21:11:59.309Z,100.00
2023-01-02T21:14:27.168Z,100.00
2023-01-02T21:16:55.661Z,100.00
2023-01-02T21:19:23.052Z,100.00
2023-01-02T21:21:50.423Z,100.00
2023-01-02T21:24:17.873Z,100.00
2023-01-02T21:26:45.262Z,100.00
2023-01-02T21:29:12.585Z,100.00
2023-01-02T21:31:40.269Z,100.00
2023-01-02T21:34:07.922Z,100.00
2023-01-02T21:36:36.991Z,100.00
2023-01-02T21:39:04.419Z,100.00
2023-01-02T21:41:50.353Z,100.00
2023-01-02T21:44:17.720Z,100.00
2023-01-02T21:46:45.107Z,100.00
2023-01-02T21:49:12.490Z,100.00
2023-01-02T21:51:39.806Z,100.00
2023-01-02T21:54:07.176Z,100.00
2023-01-02T21:56:34.635Z,100.00
2023-01-02T21:59:02.094Z,100.00
2023-01-02T22:01:29.448Z,100.00
2023-01-02T22:03:57.415Z,100.00
2023-01-02T22:06:25.744Z,100.00
2023-01-02T22:08:53.112Z,100.00
2023-01-02T22:11:39.151Z,100.00
2023-01-02T22:14:06.580Z,100.00
2023-01-02T22:16:34.050Z,100.00
2023-01-02T22:19:01.512Z,100.00
2023-01-02T22:21:28.871Z,100.00
2023-01-02T22:23:56.198Z,100.00
2023-01-02T22:26:23.696Z,100.00
2023-01-02T22:28:51.066Z,100.00
2023-01-02T22:31:18.544Z,100.00
2023-01-02T22:33:46.008Z,100.00
2023-01-02T22:36:15.521Z,100.00
2023-01-02T22:39:02.348Z,100.00
2023-01-02T22:41:31.029Z,100.00
2023-01-02T22:43:59.452Z,100.00
2023-01-02T22:46:30.214Z,100.00
2023-01-02T22:48:57.574Z,100.00
2023-01-02T22:51:49.841Z,100.00
2023-01-02T22:54:17.713Z,100.00
2023-01-02T22:56:45.492Z,100.00
2023-01-02T22:59:12.862Z,100.00
2023-01-02T23:01:42.047Z,100.00
2023-01-02T23:04:23.661Z,100.00
2023-01-02T23:07:22.955Z,100.00
2023-01-02T23:09:39.857Z,100.00
2023-01-02T23:12:07.513Z,100.00
2023-01-02T23:14:35.023Z,100.00
2023-01-02T23:17:20.944Z,100.00
2023-01-02T23:19:48.991Z,100.00
2023-01-02T23:22:16.382Z,100.00
2023-01-02T23:24:43.704Z,100.00
2023-01-02T23:27:12.313Z,100.00
2023-01-02T23:29:40.050Z,100.00
2023-01-02T23:32:10.275Z,100.00
2023-01-02T23:34:37.694Z,100.00
2023-01-02T23:37:05.492Z,100.00
2023-01-02T23:39:34.289Z,100.00
2023-01-02T23:42:02.233Z,100.00
2023-01-02T23:44:29.636Z,100.00
2023-01-02T23:46:57.383Z,100.00
2023-01-02T23:49:25.478Z,100.00
2023-01-02T23:51:53.835Z,100.00
2023-01-02T23:54:21.862Z,100.00
2023-01-02T23:56:50.398Z,100.00
2023-01-02T23:59:22.887Z,100.00
